Time;durP1;ratioP1;P1;durP2;ratioP2;P2;SDS_P1;SDS_P2;PMS_P1;PMS_P2;Temp;Humidity;BMP_temperature;BMP_pressure;BME280_temperature;BME280_humidity;BME280_pressure;Samples;Min_cycle;Max_cycle;Signal;HPM_P1;HPM_P2
2021/08/05 00:02:13;;;;;;;3.88;2.10;;;;;;;;;;4952374;28;20078;-79
2021/08/05 00:04:41;;;;;;;3.67;2.22;;;;;;;;;;4944458;28;20112;-78
2021/08/05 00:07:12;;;;;;;4.72;2.28;;;;;;;;;;4966627;28;20421;-79
2021/08/05 00:09:43;;;;;;;9.35;1.65;;;;;;;;;;4948420;29;20142;-79
2021/08/05 00:12:14;;;;;;;4.28;2.38;;;;;;;;;;4953531;28;20654;-79
2021/08/05 00:14:42;;;;;;;5.07;2.35;;;;;;;;;;4934322;28;20462;-77
2021/08/05 00:17:10;;;;;;;5.70;2.10;;;;;;;;;;4950324;28;20129;-78
2021/08/05 00:19:37;;;;;;;4.70;2.38;;;;;;;;;;4950291;28;20497;-79
2021/08/05 00:22:05;;;;;;;3.88;2.15;;;;;;;;;;4952510;28;20158;-79
2021/08/05 00:24:33;;;;;;;11.40;2.53;;;;;;;;;;4941542;28;20074;-78
2021/08/05 00:27:00;;;;;;;3.50;2.20;;;;;;;;;;4953186;28;20055;-79
2021/08/05 00:29:28;;;;;;;4.38;2.35;;;;;;;;;;4951909;28;20050;-78
2021/08/05 00:31:55;;;;;;;5.78;2.13;;;;;;;;;;4945299;28;20508;-78
2021/08/05 00:34:23;;;;;;;7.35;2.95;;;;;;;;;;4939061;28;20047;-78
2021/08/05 00:36:50;;;;;;;4.10;2.42;;;;;;;;;;4945488;28;20155;-77
2021/08/05 00:39:17;;;;;;;13.80;2.72;;;;;;;;;;4949357;29;20083;-78
2021/08/05 00:41:44;;;;;;;4.88;2.55;;;;;;;;;;4949981;28;20110;-79
2021/08/05 00:44:12;;;;;;;7.68;2.53;;;;;;;;;;4939700;28;20090;-78
2021/08/05 00:46:39;;;;;;;6.10;2.30;;;;;;;;;;4945882;28;20134;-78
2021/08/05 00:49:06;;;;;;;3.97;2.25;;;;;;;;;;4948118;29;20047;-79
2021/08/05 00:51:33;;;;;;;7.60;2.80;;;;;;;;;;4940141;28;20556;-78
2021/08/05 00:54:01;;;;;;;3.90;2.20;;;;;;;;;;4948220;28;20437;-78
2021/08/05 00:56:28;;;;;;;6.28;2.33;;;;;;;;;;4956150;28;20047;-77
2021/08/05 00:58:56;;;;;;;3.53;2.00;;;;;;;;;;4967681;28;20066;-78
2021/08/05 01:01:24;;;;;;;4.15;1.80;;;;;;;;;;4948228;28;20090;-79
2021/08/05 01:03:54;;;;;;;4.85;2.33;;;;;;;;;;4946470;28;20459;-76
2021/08/05 01:06:45;;;;;;;7.78;2.10;;;;;;;;;;4942160;28;20071;-78
2021/08/05 01:09:31;;;;;;;6.80;2.42;;;;;;;;;;4925488;28;20051;-77
2021/08/05 01:11:58;;;;;;;;;;;;;;;;;;4949432;28;20039;-77
2021/08/05 01:14:27;;;;;;;5.07;2.25;;;;;;;;;;4945179;28;19994;-79
2021/08/05 01:16:55;;;;;;;3.00;2.13;;;;;;;;;;4950185;28;20203;-78
2021/08/05 01:19:29;;;;;;;5.47;2.40;;;;;;;;;;4952209;28;20078;-79
2021/08/05 01:22:00;;;;;;;5.28;2.17;;;;;;;;;;4945288;28;20055;-78
2021/08/05 01:24:29;;;;;;;5.03;1.73;;;;;;;;;;4941909;28;20082;-77
2021/08/05 01:26:59;;;;;;;3.00;2.30;;;;;;;;;;4955925;28;20067;-78
2021/08/05 01:29:27;;;;;;;2.80;2.15;;;;;;;;;;4965705;28;20150;-78
2021/08/05 01:31:55;;;;;;;2.78;2.15;;;;;;;;;;4965070;28;20047;-77
2021/08/05 01:34:23;;;;;;;7.47;2.25;;;;;;;;;;4942807;28;20043;-78
2021/08/05 01:36:50;;;;;;;4.22;2.13;;;;;;;;;;4942796;29;20163;-78
2021/08/05 01:39:18;;;;;;;4.05;1.98;;;;;;;;;;4939368;28;20137;-78
2021/08/05 01:41:46;;;;;;;8.27;2.38;;;;;;;;;;4950728;28;20826;-78
2021/08/05 01:44:13;;;;;;;6.28;2.58;;;;;;;;;;4941901;28;20055;-78
2021/08/05 01:46:41;;;;;;;6.55;2.22;;;;;;;;;;4946168;28;20051;-78
2021/08/05 01:49:08;;;;;;;4.60;2.20;;;;;;;;;;4951689;28;20082;-78
2021/08/05 01:51:35;;;;;;;5.68;2.17;;;;;;;;;;4950617;28;20130;-78
2021/08/05 01:54:03;;;;;;;9.35;2.25;;;;;;;;;;4943499;28;20103;-77
2021/08/05 01:56:30;;;;;;;2.92;2.10;;;;;;;;;;4952894;28;20451;-77
2021/08/05 01:58:59;;;;;;;5.50;2.15;;;;;;;;;;4960759;28;20089;-78
2021/08/05 02:01:27;;;;;;;6.10;2.42;;;;;;;;;;4946646;28;20141;-78
2021/08/05 02:04:12;;;;;;;3.60;2.35;;;;;;;;;;4942540;28;20073;-77
2021/08/05 02:06:54;;;;;;;5.40;2.08;;;;;;;;;;4940802;28;20047;-79
2021/08/05 02:09:27;;;;;;;9.48;3.70;;;;;;;;;;4950394;29;21294;-78
2021/08/05 02:11:55;;;;;;;2.90;2.17;;;;;;;;;;4952815;28;20078;-77
2021/08/05 02:14:24;;;;;;;4.70;3.05;;;;;;;;;;4943697;28;21031;-78
2021/08/05 02:16:52;;;;;;;7.90;2.58;;;;;;;;;;4947189;28;20106;-78
2021/08/05 02:19:20;;;;;;;5.65;2.42;;;;;;;;;;4948850;28;20139;-78
2021/08/05 02:21:47;;;;;;;4.55;3.10;;;;;;;;;;4949586;28;20098;-79
2021/08/05 02:24:17;;;;;;;6.65;2.40;;;;;;;;;;4938553;28;20605;-77
2021/08/05 02:26:44;;;;;;;4.30;2.83;;;;;;;;;;4969240;28;20083;-77
2021/08/05 02:29:11;;;;;;;6.22;2.08;;;;;;;;;;4952315;29;20496;-78
2021/08/05 02:31:39;;;;;;;6.18;2.40;;;;;;;;;;4951936;28;20150;-79
2021/08/05 02:34:07;;;;;;;3.83;2.35;;;;;;;;;;4931128;28;20509;-78
2021/08/05 02:36:35;;;;;;;4.25;2.72;;;;;;;;;;4944982;28;20559;-77
2021/08/05 02:39:04;;;;;;;6.28;3.03;;;;;;;;;;4951459;29;20704;-79
2021/08/05 02:41:31;;;;;;;3.42;2.20;;;;;;;;;;4948317;28;20051;-77
2021/08/05 02:44:01;;;;;;;6.75;2.70;;;;;;;;;;4944218;28;20051;-77
2021/08/05 02:46:29;;;;;;;5.30;2.88;;;;;;;;;;4946063;28;20077;-78
2021/08/05 02:48:57;;;;;;;5.13;2.60;;;;;;;;;;4950846;28;20078;-78
2021/08/05 02:51:24;;;;;;;6.63;3.00;;;;;;;;;;4948756;28;20126;-77
2021/08/05 02:53:52;;;;;;;5.88;2.40;;;;;;;;;;4946081;28;20512;-78
2021/08/05 02:56:20;;;;;;;3.00;2.15;;;;;;;;;;4948414;28;20066;-77
2021/08/05 02:58:48;;;;;;;9.70;2.40;;;;;;;;;;4944761;29;20548;-78
2021/08/05 03:01:15;;;;;;;6.72;2.53;;;;;;;;;;4948633;28;20087;-77
2021/08/05 03:03:43;;;;;;;4.10;2.40;;;;;;;;;;4943212;28;20051;-78
2021/08/05 03:06:11;;;;;;;3.28;2.38;;;;;;;;;;4941407;28;20206;-77
2021/08/05 03:08:40;;;;;;;4.68;2.70;;;;;;;;;;4949700;28;20086;-78
2021/08/05 03:11:08;;;;;;;3.92;2.72;;;;;;;;;;4946874;28;20079;-78
2021/08/05 03:13:35;;;;;;;7.82;2.75;;;;;;;;;;4938188;28;20082;-77
2021/08/05 03:16:02;;;;;;;4.50;2.85;;;;;;;;;;4943271;28;20826;-79
2021/08/05 03:18:29;;;;;;;4.72;3.00;;;;;;;;;;4949525;28;20673;-77
2021/08/05 03:20:57;;;;;;;7.32;2.60;;;;;;;;;;4951305;28;20059;-79
2021/08/05 03:23:24;;;;;;;5.85;2.80;;;;;;;;;;4947184;29;20051;-79
2021/08/05 03:25:52;;;;;;;8.32;2.78;;;;;;;;;;4949391;28;20057;-78
2021/08/05 03:28:19;;;;;;;5.32;2.67;;;;;;;;;;4957423;28;20043;-78
2021/08/05 03:30:46;;;;;;;5.47;2.72;;;;;;;;;;4953922;28;20082;-77
2021/08/05 03:33:13;;;;;;;5.47;2.97;;;;;;;;;;4932981;29;20150;-77
2021/08/05 03:35:41;;;;;;;6.43;2.85;;;;;;;;;;4939218;28;20134;-77
2021/08/05 03:38:08;;;;;;;4.47;2.58;;;;;;;;;;4944150;28;20114;-78
2021/08/05 03:40:35;;;;;;;3.90;2.55;;;;;;;;;;4934374;29;20055;-77
2021/08/05 03:43:04;;;;;;;5.00;2.72;;;;;;;;;;4947675;28;20492;-77
2021/08/05 03:45:31;;;;;;;4.18;2.72;;;;;;;;;;4939878;29;20051;-77
2021/08/05 03:47:58;;;;;;;6.05;3.30;;;;;;;;;;4944706;28;20047;-77
2021/08/05 03:50:25;;;;;;;5.95;3.08;;;;;;;;;;4947743;28;20158;-78
2021/08/05 03:52:53;;;;;;;4.47;2.83;;;;;;;;;;4948475;29;20134;-78
2021/08/05 03:55:20;;;;;;;7.68;3.15;;;;;;;;;;4943669;28;20046;-77
2021/08/05 03:57:47;;;;;;;7.55;2.63;;;;;;;;;;4951364;28;20056;-78
2021/08/05 04:00:16;;;;;;;5.05;3.00;;;;;;;;;;4945907;28;20048;-78
2021/08/05 04:02:44;;;;;;;8.05;3.30;;;;;;;;;;4947587;28;20090;-78
2021/08/05 04:05:12;;;;;;;5.95;3.17;;;;;;;;;;4945645;28;20760;-77
2021/08/05 04:07:39;;;;;;;4.43;3.08;;;;;;;;;;4952460;28;20101;-78
2021/08/05 04:10:07;;;;;;;7.72;3.17;;;;;;;;;;4950492;28;20052;-78
2021/08/05 04:12:35;;;;;;;7.05;3.53;;;;;;;;;;4948545;29;20043;-79
2021/08/05 04:15:02;;;;;;;11.05;3.40;;;;;;;;;;4939037;28;20131;-78
2021/08/05 04:17:30;;;;;;;7.00;3.28;;;;;;;;;;4950674;28;20134;-76
2021/08/05 04:19:57;;;;;;;6.15;3.20;;;;;;;;;;4951703;28;20134;-78
2021/08/05 04:22:24;;;;;;;8.40;3.80;;;;;;;;;;4954726;29;20083;-79
2021/08/05 04:24:51;;;;;;;7.68;3.95;;;;;;;;;;4944596;28;20146;-79
2021/08/05 04:27:19;;;;;;;16.75;3.95;;;;;;;;;;4951090;28;20082;-76
2021/08/05 04:29:46;;;;;;;10.38;3.17;;;;;;;;;;4953804;28;20451;-79
2021/08/05 04:32:13;;;;;;;9.10;3.90;;;;;;;;;;4945470;28;20765;-76
2021/08/05 04:34:40;;;;;;;12.48;3.80;;;;;;;;;;4942420;28;20155;-78
2021/08/05 04:37:08;;;;;;;11.05;3.70;;;;;;;;;;4952717;29;20137;-79
2021/08/05 04:39:35;;;;;;;9.23;4.45;;;;;;;;;;4953103;28;20855;-77
2021/08/05 04:42:03;;;;;;;8.73;3.63;;;;;;;;;;4949430;28;20047;-78
2021/08/05 04:44:31;;;;;;;10.70;3.70;;;;;;;;;;4956919;28;20047;-83
2021/08/05 04:46:58;;;;;;;6.35;3.45;;;;;;;;;;4947729;28;20079;-80
2021/08/05 04:49:28;;;;;;;7.45;4.28;;;;;;;;;;4948109;28;20166;-79
2021/08/05 04:52:01;;;;;;;11.73;3.95;;;;;;;;;;4950954;28;20453;-81
2021/08/05 04:54:29;;;;;;;13.63;4.40;;;;;;;;;;4942035;28;20149;-79
2021/08/05 04:56:56;;;;;;;7.22;4.15;;;;;;;;;;4947587;28;20071;-82
2021/08/05 04:59:23;;;;;;;10.15;3.65;;;;;;;;;;4966586;28;20117;-81
2021/08/05 05:01:52;;;;;;;10.05;3.92;;;;;;;;;;4950346;28;20115;-78
2021/08/05 05:04:22;;;;;;;12.48;4.10;;;;;;;;;;4940657;28;20047;-80
2021/08/05 05:06:50;;;;;;;7.05;3.95;;;;;;;;;;4948593;28;20078;-76
2021/08/05 05:09:17;;;;;;;8.65;3.92;;;;;;;;;;4949849;28;20130;-76
2021/08/05 05:11:44;;;;;;;5.85;3.83;;;;;;;;;;4949540;28;20051;-77
2021/08/05 05:14:11;;;;;;;7.28;4.50;;;;;;;;;;4939667;28;20571;-77
2021/08/05 05:16:38;;;;;;;6.25;3.63;;;;;;;;;;4946481;28;20078;-80
2021/08/05 05:19:06;;;;;;;9.35;3.53;;;;;;;;;;4934909;29;20118;-79
2021/08/05 05:21:33;;;;;;;10.43;3.05;;;;;;;;;;4961958;28;20086;-77
2021/08/05 05:24:00;;;;;;;5.05;3.40;;;;;;;;;;4938993;28;20085;-77
2021/08/05 05:26:35;;;;;;;3.55;2.38;;;;;;;;;;4944943;28;20129;-78
2021/08/05 05:29:03;;;;;;;5.15;2.72;;;;;;;;;;4952326;29;20043;-78
2021/08/05 05:31:30;;;;;;;10.10;3.08;;;;;;;;;;4942660;29;20134;-77
2021/08/05 05:33:58;;;;;;;4.78;2.88;;;;;;;;;;4944892;28;20055;-77
2021/08/05 05:36:28;;;;;;;4.60;3.35;;;;;;;;;;4944756;28;20856;-78
2021/08/05 05:38:55;;;;;;;9.52;3.75;;;;;;;;;;4949292;29;20503;-77
2021/08/05 05:41:23;;;;;;;4.25;2.50;;;;;;;;;;4947232;28;20078;-78
2021/08/05 05:43:52;;;;;;;5.75;2.60;;;;;;;;;;4943690;28;20747;-78
2021/08/05 05:46:21;;;;;;;5.20;2.53;;;;;;;;;;4939516;28;20058;-78
2021/08/05 05:48:48;;;;;;;3.58;2.00;;;;;;;;;;4952393;28;20134;-77
2021/08/05 05:51:17;;;;;;;6.82;2.88;;;;;;;;;;4950330;28;20476;-79
2021/08/05 05:53:49;;;;;;;5.15;2.95;;;;;;;;;;4960224;28;20050;-83
2021/08/05 05:56:18;;;;;;;4.38;2.80;;;;;;;;;;4944689;28;20062;-82
2021/08/05 05:58:45;;;;;;;8.25;2.78;;;;;;;;;;4950721;28;20437;-82
2021/08/05 06:01:13;;;;;;;4.95;2.25;;;;;;;;;;4948155;28;20133;-83
2021/08/05 06:03:41;;;;;;;4.22;2.50;;;;;;;;;;4945460;28;20086;-81
2021/08/05 06:06:09;;;;;;;5.25;2.42;;;;;;;;;;4944543;28;20500;-85
2021/08/05 06:08:36;;;;;;;4.20;2.35;;;;;;;;;;4947783;28;20075;-80
2021/08/05 06:11:11;;;;;;;6.70;2.50;;;;;;;;;;4963145;28;20138;-80
2021/08/05 06:13:40;;;;;;;8.90;2.13;;;;;;;;;;4949508;28;20432;-80
2021/08/05 06:16:09;;;;;;;3.00;2.00;;;;;;;;;;4948884;29;20055;-81
2021/08/05 06:18:38;;;;;;;3.70;1.92;;;;;;;;;;4954613;29;20047;-82
2021/08/05 06:21:05;;;;;;;3.53;1.88;;;;;;;;;;4951612;28;20071;-85
2021/08/05 06:23:32;;;;;;;3.72;2.03;;;;;;;;;;4947649;28;20603;-84
2021/08/05 06:26:03;;;;;;;3.78;1.80;;;;;;;;;;4946639;28;20749;-82
2021/08/05 06:28:33;;;;;;;3.97;2.00;;;;;;;;;;4964160;28;20166;-88
2021/08/05 06:31:03;;;;;;;3.42;2.00;;;;;;;;;;4953460;28;20482;-84
2021/08/05 06:33:32;;;;;;;2.70;1.67;;;;;;;;;;4944676;28;20314;-86
2021/08/05 06:36:00;;;;;;;6.82;1.92;;;;;;;;;;4935681;29;20107;-85
2021/08/05 06:38:29;;;;;;;6.05;1.75;;;;;;;;;;4935567;29;20083;-82
2021/08/05 06:40:56;;;;;;;4.60;2.20;;;;;;;;;;4951608;29;20051;-81
2021/08/05 06:43:23;;;;;;;5.88;2.00;;;;;;;;;;4944879;28;20079;-81
2021/08/05 06:45:51;;;;;;;3.22;1.83;;;;;;;;;;4944366;28;20129;-80
2021/08/05 06:48:18;;;;;;;3.60;1.95;;;;;;;;;;4950993;29;20134;-80
2021/08/05 06:50:45;;;;;;;2.50;1.80;;;;;;;;;;4945698;29;20102;-85
2021/08/05 06:53:13;;;;;;;2.78;1.90;;;;;;;;;;4953985;28;20055;-81
2021/08/05 06:55:40;;;;;;;5.18;1.75;;;;;;;;;;4954958;28;20047;-83
2021/08/05 06:58:07;;;;;;;2.80;1.70;;;;;;;;;;4968490;28;20090;-82
2021/08/05 07:00:35;;;;;;;4.05;1.77;;;;;;;;;;4952643;28;20083;-80
2021/08/05 07:03:02;;;;;;;3.25;1.50;;;;;;;;;;4937412;29;20055;-82
2021/08/05 07:05:30;;;;;;;3.08;1.63;;;;;;;;;;4921423;29;20081;-80
2021/08/05 07:07:57;;;;;;;4.78;1.50;;;;;;;;;;4956986;28;20496;-82
2021/08/05 07:10:25;;;;;;;3.35;1.65;;;;;;;;;;4952662;29;20070;-81
2021/08/05 07:13:00;;;;;;;6.22;1.70;;;;;;;;;;4937647;29;20048;-81
2021/08/05 07:15:27;;;;;;;4.70;1.70;;;;;;;;;;4948197;29;20043;-83
2021/08/05 07:17:55;;;;;;;4.30;1.52;;;;;;;;;;4954594;28;20047;-80
2021/08/05 07:20:22;;;;;;;2.63;1.50;;;;;;;;;;4946531;29;20792;-80
2021/08/05 07:23:03;;;;;;;4.30;1.88;;;;;;;;;;4949726;28;20056;-80
2021/08/05 07:25:30;;;;;;;3.08;1.48;;;;;;;;;;4955565;28;20050;-78
2021/08/05 07:28:01;;;;;;;5.50;2.08;;;;;;;;;;4959975;28;20094;-79
2021/08/05 07:30:29;;;;;;;3.95;1.80;;;;;;;;;;4950446;29;20139;-77
2021/08/05 07:32:57;;;;;;;2.72;1.52;;;;;;;;;;4952580;29;20053;-79
2021/08/05 07:35:24;;;;;;;3.17;1.40;;;;;;;;;;4953679;29;20051;-81
2021/08/05 07:37:51;;;;;;;2.92;1.70;;;;;;;;;;4958766;28;20107;-81
2021/08/05 07:40:18;;;;;;;3.88;1.63;;;;;;;;;;4959382;28;20579;-83
2021/08/05 07:42:45;;;;;;;78.32;9.13;;;;;;;;;;4953484;29;20464;-80
2021/08/05 07:45:13;;;;;;;5.43;1.33;;;;;;;;;;4953400;28;20544;-81
2021/08/05 07:47:40;;;;;;;3.65;1.50;;;;;;;;;;4957204;29;20043;-83
2021/08/05 07:50:10;;;;;;;6.35;1.73;;;;;;;;;;4956746;29;20110;-79
2021/08/05 07:52:39;;;;;;;1.85;1.27;;;;;;;;;;4955324;28;20051;-79
2021/08/05 07:55:06;;;;;;;2.40;1.40;;;;;;;;;;4967813;28;20079;-80
2021/08/05 07:57:34;;;;;;;4.97;1.88;;;;;;;;;;4967836;28;20095;-81
2021/08/05 08:00:01;;;;;;;4.60;1.70;;;;;;;;;;4956834;29;20090;-80
2021/08/05 08:02:29;;;;;;;6.45;2.08;;;;;;;;;;4955419;29;20106;-80
2021/08/05 08:05:02;;;;;;;2.40;1.50;;;;;;;;;;4943821;28;20055;-81
2021/08/05 08:07:35;;;;;;;3.75;1.60;;;;;;;;;;4955485;28;20055;-80
2021/08/05 08:10:04;;;;;;;2.95;1.38;;;;;;;;;;4956981;29;20044;-81
2021/08/05 08:12:31;;;;;;;4.65;1.75;;;;;;;;;;4956862;28;20079;-79
2021/08/05 08:14:59;;;;;;;6.35;1.80;;;;;;;;;;4955244;28;20126;-81
2021/08/05 08:17:26;;;;;;;2.22;1.40;;;;;;;;;;4954805;29;20039;-81
2021/08/05 08:19:53;;;;;;;2.03;1.65;;;;;;;;;;4956998;29;20142;-80
2021/08/05 08:22:23;;;;;;;2.65;1.25;;;;;;;;;;4961126;28;20043;-83
2021/08/05 08:24:51;;;;;;;1.85;1.45;;;;;;;;;;4967250;28;20138;-80
2021/08/05 08:27:18;;;;;;;3.75;1.77;;;;;;;;;;4963085;28;20540;-82
2021/08/05 08:29:45;;;;;;;3.28;2.00;;;;;;;;;;4956253;29;20086;-80
2021/08/05 08:32:12;;;;;;;4.47;1.73;;;;;;;;;;4956615;29;20447;-81
2021/08/05 08:34:39;;;;;;;4.75;1.60;;;;;;;;;;4956113;29;20062;-81
2021/08/05 08:37:06;;;;;;;5.05;1.58;;;;;;;;;;4956745;28;20134;-83
2021/08/05 08:39:34;;;;;;;7.68;1.67;;;;;;;;;;4956620;29;20097;-82
2021/08/05 08:42:07;;;;;;;4.05;1.38;;;;;;;;;;4956792;28;20073;-82
2021/08/05 08:44:35;;;;;;;2.90;1.70;;;;;;;;;;4956684;28;20118;-84
2021/08/05 08:47:02;;;;;;;4.40;1.60;;;;;;;;;;4954903;29;20058;-82
2021/08/05 08:49:31;;;;;;;1.85;1.35;;;;;;;;;;4955008;29;20143;-82
2021/08/05 08:51:59;;;;;;;3.88;1.90;;;;;;;;;;4957698;28;20101;-83
2021/08/05 08:54:26;;;;;;;2.97;2.25;;;;;;;;;;4965754;28;20047;-80
2021/08/05 08:56:54;;;;;;;2.55;1.55;;;;;;;;;;4961976;28;20110;-82
2021/08/05 08:59:22;;;;;;;2.45;1.42;;;;;;;;;;4955919;29;20138;-82
2021/08/05 09:01:49;;;;;;;3.88;1.75;;;;;;;;;;4954740;29;20134;-81
2021/08/05 09:04:17;;;;;;;2.95;1.92;;;;;;;;;;4944737;28;20055;-83
2021/08/05 09:06:48;;;;;;;1.45;1.13;;;;;;;;;;4951282;29;20138;-82
2021/08/05 09:09:15;;;;;;;2.65;1.50;;;;;;;;;;4955905;28;20147;-81
2021/08/05 09:11:42;;;;;;;3.35;1.38;;;;;;;;;;4955829;29;20133;-82
2021/08/05 09:14:10;;;;;;;3.20;1.63;;;;;;;;;;4954371;29;20138;-83
2021/08/05 09:16:38;;;;;;;4.22;1.48;;;;;;;;;;4956708;28;20043;-80
2021/08/05 09:19:16;;;;;;;4.75;1.42;;;;;;;;;;4955862;29;20142;-81
2021/08/05 09:21:54;;;;;;;2.80;1.63;;;;;;;;;;4955182;28;20078;-83
2021/08/05 09:24:27;;;;;;;3.53;1.70;;;;;;;;;;4954978;28;20461;-82
2021/08/05 09:26:57;;;;;;;2.30;1.35;;;;;;;;;;4964136;28;20138;-81
2021/08/05 09:29:25;;;;;;;2.88;1.20;;;;;;;;;;4963926;28;20079;-83
2021/08/05 09:32:01;;;;;;;4.63;1.13;;;;;;;;;;4955642;28;20098;-84
2021/08/05 09:34:36;;;;;;;1.92;1.40;;;;;;;;;;4955053;28;20051;-84
2021/08/05 09:37:08;;;;;;;4.63;2.00;;;;;;;;;;4954199;29;20055;-83
2021/08/05 09:39:46;;;;;;;6.30;1.75;;;;;;;;;;4955973;29;20141;-83
2021/08/05 09:42:14;;;;;;;2.20;1.42;;;;;;;;;;4954804;29;20688;-81
2021/08/05 09:44:46;;;;;;;3.03;1.73;;;;;;;;;;4953408;29;20135;-83
2021/08/05 09:47:21;;;;;;;2.88;1.50;;;;;;;;;;4954065;29;20058;-82
2021/08/05 09:49:51;;;;;;;3.78;1.77;;;;;;;;;;4955063;29;20075;-83
2021/08/05 09:52:31;;;;;;;2.70;1.52;;;;;;;;;;4941105;29;20185;-82
2021/08/05 09:55:01;;;;;;;4.72;1.75;;;;;;;;;;4938406;28;20052;-82
2021/08/05 09:57:51;;;;;;;2.38;1.52;;;;;;;;;;4964705;28;20051;-83
2021/08/05 10:00:18;;;;;;;2.50;1.55;;;;;;;;;;4961182;28;20073;-83
2021/08/05 10:02:53;;;;;;;7.00;1.58;;;;;;;;;;4958069;28;20051;-81
2021/08/05 10:05:24;;;;;;;2.85;1.33;;;;;;;;;;4954969;28;20057;-81
2021/08/05 10:07:54;;;;;;;3.25;1.42;;;;;;;;;;4973679;28;20161;-82
2021/08/05 10:10:24;;;;;;;15.90;2.10;;;;;;;;;;4973602;28;20086;-84
2021/08/05 10:12:52;;;;;;;2.50;1.52;;;;;;;;;;4956653;28;20079;-81
2021/08/05 10:15:20;;;;;;;4.22;1.50;;;;;;;;;;4954231;28;20130;-83
2021/08/05 10:17:52;;;;;;;3.58;1.40;;;;;;;;;;4954597;29;20082;-82
2021/08/05 10:20:20;;;;;;;3.95;1.45;;;;;;;;;;4954050;28;20130;-82
2021/08/05 10:22:48;;;;;;;2.30;1.73;;;;;;;;;;4952436;29;20147;-82
2021/08/05 10:25:17;;;;;;;9.88;1.80;;;;;;;;;;4958448;28;20090;-82
2021/08/05 10:27:44;;;;;;;2.40;1.70;;;;;;;;;;4965390;28;20219;-83
2021/08/05 10:30:13;;;;;;;4.90;1.45;;;;;;;;;;4973701;28;20134;-81
2021/08/05 10:32:40;;;;;;;2.38;1.20;;;;;;;;;;4970239;28;20886;-81
2021/08/05 10:35:09;;;;;;;3.85;1.60;;;;;;;;;;4965911;28;20127;-83
2021/08/05 10:37:37;;;;;;;3.08;1.35;;;;;;;;;;4973386;28;20142;-83
2021/08/05 10:40:05;;;;;;;2.22;1.20;;;;;;;;;;4973515;28;20133;-84
2021/08/05 10:42:33;;;;;;;7.28;1.60;;;;;;;;;;4967070;28;20460;-82
2021/08/05 10:45:01;;;;;;;5.15;1.10;;;;;;;;;;4954403;28;20381;-82
2021/08/05 10:47:31;;;;;;;4.35;1.77;;;;;;;;;;4954072;29;20520;-82
2021/08/05 10:49:59;;;;;;;4.63;1.60;;;;;;;;;;4952652;29;20087;-82
2021/08/05 10:52:35;;;;;;;3.05;1.38;;;;;;;;;;4953314;29;20048;-82
2021/08/05 10:55:22;;;;;;;7.53;1.75;;;;;;;;;;4955604;28;20491;-83
2021/08/05 10:58:08;;;;;;;4.07;1.30;;;;;;;;;;4949320;28;20167;-82
2021/08/05 11:00:51;;;;;;;7.30;1.33;;;;;;;;;;4954124;28;20134;-82
2021/08/05 11:03:51;;;;;;;10.32;1.80;;;;;;;;;;4952631;28;20059;-81
2021/08/05 11:06:24;;;;;;;4.70;1.85;;;;;;;;;;4945367;29;20078;-81
2021/08/05 11:08:51;;;;;;;3.13;1.65;;;;;;;;;;4953528;29;20105;-81
2021/08/05 11:11:25;;;;;;;2.08;1.70;;;;;;;;;;4953855;29;20093;-80
2021/08/05 11:13:52;;;;;;;2.75;1.88;;;;;;;;;;4953786;28;20051;-81
2021/08/05 11:16:39;;;;;;;4.05;1.45;;;;;;;;;;4952465;28;20133;-80
2021/08/05 11:19:19;;;;;;;7.63;1.85;;;;;;;;;;4954664;28;20055;-80
2021/08/05 11:21:47;;;;;;;7.95;1.60;;;;;;;;;;4957652;29;20484;-80
2021/08/05 11:24:34;;;;;;;4.70;1.70;;;;;;;;;;4957963;29;20130;-78
2021/08/05 11:27:11;;;;;;;4.28;1.77;;;;;;;;;;4973437;28;20043;-80
2021/08/05 11:29:39;;;;;;;3.75;1.20;;;;;;;;;;4962221;28;20090;-80
2021/08/05 11:32:22;;;;;;;8.73;1.90;;;;;;;;;;4957808;28;20404;-82
2021/08/05 11:34:56;;;;;;;6.35;1.98;;;;;;;;;;4964127;28;20051;-79
2021/08/05 11:37:24;;;;;;;2.15;1.52;;;;;;;;;;4956879;29;20571;-81
2021/08/05 11:39:52;;;;;;;3.05;1.73;;;;;;;;;;4956978;29;20098;-79
2021/08/05 11:42:20;;;;;;;3.20;1.80;;;;;;;;;;4956783;28;20101;-79
2021/08/05 11:44:48;;;;;;;4.15;1.50;;;;;;;;;;4956570;29;20126;-78
2021/08/05 11:50:06;;;;;;;3.75;1.48;;;;;;;;;;4957023;29;20082;-81
2021/08/05 11:52:39;;;;;;;4.43;1.60;;;;;;;;;;4955351;29;20412;-83
2021/08/05 11:55:20;;;;;;;5.07;1.40;;;;;;;;;;4956297;28;20169;-80
2021/08/05 11:57:47;;;;;;;2.75;1.48;;;;;;;;;;4966278;28;20074;-78
2021/08/05 12:00:16;;;;;;;2.65;1.55;;;;;;;;;;4940058;28;20788;-77
2021/08/05 12:02:44;;;;;;;6.72;1.77;;;;;;;;;;4955841;29;20102;-79
2021/08/05 12:05:14;;;;;;;7.20;2.05;;;;;;;;;;4953540;28;20059;-79
2021/08/05 12:07:48;;;;;;;4.10;1.50;;;;;;;;;;4964616;28;20069;-80
2021/08/05 12:10:15;;;;;;;2.80;1.63;;;;;;;;;;4953477;29;20408;-79
2021/08/05 12:12:44;;;;;;;4.03;1.30;;;;;;;;;;4944197;28;20295;-75
2021/08/05 12:15:13;;;;;;;5.05;1.40;;;;;;;;;;4943361;29;20778;-76
2021/08/05 12:17:42;;;;;;;2.95;1.58;;;;;;;;;;4946267;28;20102;-75
2021/08/05 12:20:15;;;;;;;5.18;1.50;;;;;;;;;;4946400;28;20434;-77
2021/08/05 12:22:44;;;;;;;3.83;1.45;;;;;;;;;;4944680;29;20130;-76
2021/08/05 12:25:25;;;;;;;8.63;1.65;;;;;;;;;;4943026;28;20057;-76
2021/08/05 12:27:57;;;;;;;6.85;1.50;;;;;;;;;;4946605;28;20094;-76
2021/08/05 12:30:38;;;;;;;3.33;1.35;;;;;;;;;;4941182;29;20057;-77
2021/08/05 12:33:07;;;;;;;6.60;1.60;;;;;;;;;;4961034;28;20138;-76
2021/08/05 12:35:36;;;;;;;8.45;1.80;;;;;;;;;;4938075;29;20110;-77
2021/08/05 12:38:05;;;;;;;7.18;1.25;;;;;;;;;;4938220;29;20079;-77
2021/08/05 12:40:32;;;;;;;1.95;1.30;;;;;;;;;;4938031;28;20775;-77
2021/08/05 12:43:02;;;;;;;4.82;1.40;;;;;;;;;;4940940;29;20055;-76
2021/08/05 12:45:33;;;;;;;4.57;1.42;;;;;;;;;;4939867;29;20827;-76
2021/08/05 12:48:01;;;;;;;3.05;1.77;;;;;;;;;;4943439;28;20051;-76
2021/08/05 12:50:30;;;;;;;8.57;2.38;;;;;;;;;;4947089;28;20560;-76
2021/08/05 12:53:31;;;;;;;2.72;1.90;;;;;;;;;;4941228;29;20047;-75
2021/08/05 12:56:00;;;;;;;4.80;1.40;;;;;;;;;;4942933;28;20397;-76
2021/08/05 12:58:28;;;;;;;4.05;1.75;;;;;;;;;;4942964;28;20050;-75
2021/08/05 13:01:14;;;;;;;1.83;1.30;;;;;;;;;;4941640;29;20103;-76
2021/08/05 13:03:43;;;;;;;3.72;1.30;;;;;;;;;;4936687;28;20613;-77
2021/08/05 13:06:10;;;;;;;2.22;1.30;;;;;;;;;;4937817;29;20652;-78
2021/08/05 13:08:39;;;;;;;2.08;1.15;;;;;;;;;;4941925;28;20134;-77
2021/08/05 13:11:08;;;;;;;1.85;1.10;;;;;;;;;;4941307;29;20082;-77
2021/08/05 13:13:41;;;;;;;2.25;1.52;;;;;;;;;;4940114;28;20075;-76
2021/08/05 13:16:28;;;;;;;7.57;1.20;;;;;;;;;;4941517;29;20153;-78
2021/08/05 13:19:11;;;;;;;2.53;1.30;;;;;;;;;;4965883;28;20055;-79
2021/08/05 13:21:46;;;;;;;3.80;1.58;;;;;;;;;;4968120;28;20126;-78
2021/08/05 13:24:24;;;;;;;1.57;1.20;;;;;;;;;;4946457;28;20163;-78
2021/08/05 13:27:01;;;;;;;5.88;1.27;;;;;;;;;;4951454;28;20053;-78
2021/08/05 13:29:48;;;;;;;5.03;1.20;;;;;;;;;;4942988;29;20138;-80
2021/08/05 13:32:19;;;;;;;1.83;1.20;;;;;;;;;;4951957;28;20047;-79
2021/08/05 13:35:06;;;;;;;3.95;1.10;;;;;;;;;;4957721;28;20563;-79
2021/08/05 13:37:36;;;;;;;13.38;1.67;;;;;;;;;;4948512;28;20082;-79
2021/08/05 13:40:05;;;;;;;2.33;1.65;;;;;;;;;;4949281;28;20547;-79
2021/08/05 13:42:34;;;;;;;2.83;0.90;;;;;;;;;;4948655;28;20130;-79
2021/08/05 13:45:02;;;;;;;3.33;1.45;;;;;;;;;;4950710;28;20120;-80
2021/08/05 13:47:29;;;;;;;9.38;1.40;;;;;;;;;;4952006;28;20059;-80
2021/08/05 13:49:57;;;;;;;4.53;1.10;;;;;;;;;;4950031;28;20083;-79
2021/08/05 13:52:24;;;;;;;2.03;1.25;;;;;;;;;;4944277;29;20126;-79
2021/08/05 13:54:51;;;;;;;5.10;1.60;;;;;;;;;;4945324;28;20130;-79
2021/08/05 13:57:20;;;;;;;5.10;1.20;;;;;;;;;;4956428;28;20058;-82
2021/08/05 13:59:47;;;;;;;5.40;1.30;;;;;;;;;;4953638;28;20061;-78
2021/08/05 14:02:15;;;;;;;3.03;1.50;;;;;;;;;;4943759;29;20089;-78
2021/08/05 14:04:42;;;;;;;4.18;1.40;;;;;;;;;;4934657;29;20058;-81
2021/08/05 14:07:09;;;;;;;7.53;1.70;;;;;;;;;;4950772;28;20887;-81
2021/08/05 14:09:37;;;;;;;3.30;1.48;;;;;;;;;;4939414;28;20099;-83
2021/08/05 14:12:07;;;;;;;2.45;1.70;;;;;;;;;;4936500;29;20241;-84
2021/08/05 14:14:37;;;;;;;4.10;1.40;;;;;;;;;;4953292;29;20047;-83
2021/08/05 14:17:05;;;;;;;3.85;1.90;;;;;;;;;;4954702;28;20174;-82
2021/08/05 14:19:41;;;;;;;10.82;1.85;;;;;;;;;;4962393;28;20086;-82
2021/08/05 14:22:08;;;;;;;6.55;1.85;;;;;;;;;;4973137;28;20078;-82
2021/08/05 14:24:37;;;;;;;6.90;2.22;;;;;;;;;;4973554;28;20134;-83
2021/08/05 14:27:05;;;;;;;5.93;1.70;;;;;;;;;;4961370;28;20822;-83
2021/08/05 14:29:33;;;;;;;5.63;1.55;;;;;;;;;;4953595;29;20085;-85
2021/08/05 14:32:04;;;;;;;4.10;1.77;;;;;;;;;;4953782;29;20053;-85
2021/08/05 14:34:45;;;;;;;6.15;1.60;;;;;;;;;;4953003;28;20408;-84
2021/08/05 14:37:14;;;;;;;4.40;1.85;;;;;;;;;;4954571;28;20559;-82
2021/08/05 14:39:41;;;;;;;6.88;1.42;;;;;;;;;;4954343;29;20082;-83
2021/08/05 14:42:08;;;;;;;5.90;1.50;;;;;;;;;;4954395;28;20090;-82
2021/08/05 14:44:38;;;;;;;3.05;1.90;;;;;;;;;;4939377;28;20051;-84
2021/08/05 14:47:15;;;;;;;6.25;1.92;;;;;;;;;;4937620;29;20053;-83
2021/08/05 14:49:42;;;;;;;3.50;1.98;;;;;;;;;;4961488;28;20190;-84
2021/08/05 14:52:09;;;;;;;8.07;1.98;;;;;;;;;;4971596;28;20086;-82
2021/08/05 14:54:39;;;;;;;3.13;1.73;;;;;;;;;;4962505;28;20086;-82
2021/08/05 14:57:06;;;;;;;9.65;1.80;;;;;;;;;;4962568;28;20055;-83
2021/08/05 14:59:47;;;;;;;4.63;1.90;;;;;;;;;;4973108;28;20130;-82
2021/08/05 15:02:15;;;;;;;3.67;1.75;;;;;;;;;;4949218;29;20071;-83